• Join FlightAware (Why Join?)
  • Login
  • US Flag 
01:51PM EDT


 

Airport Tracker/Info


-or-


 

Live Flight TrackerFlight Track Log ✈ N612CT ✈ 16-Sep-2013 ✈ KTLH - KAPF

Flight Track Log - Related Links

Times and Time Zones

All times are in EDT time to prevent confusion due to time zone crossing. See the N612CT flight status page for this flight to view local times or setup timezone preferences in your user account.

Time Position Orientation Groundspeed Altitude Reporting Facility
EDT Latitude Longitude Course Direction KTS MPH feet Rate Location/Type
07:42PM 30.1360 -84.1856 128° Southeast  Level Estimated
07:43PM 30.1408 -84.1286 84° East  Level FlightAware Approximate
07:44PM 30.1456 -84.0715 84° East  Level FlightAware Approximate
07:45PM 30.1503 -84.0145 84° East  Level FlightAware Approximate
07:46PM 30.1061 -83.9886 133° Southeast  Level Estimated
07:47PM 30.0942 -83.9331 104° East  Level FlightAware Approximate
07:48PM 30.0823 -83.8775 104° East  Level FlightAware Approximate
07:49PM 30.0704 -83.8219 104° East  Level FlightAware Approximate
07:50PM 30.0256 -83.7975 130° Southeast  Level Estimated
07:51PM 29.9982 -83.7498 124° Southeast  Level FlightAware Approximate
07:51PM 30.1381 -83.7908 124° Southeast 177 204 9,000  Level Jacksonville Center
07:52PM 29.9708 -83.7021 124° Southeast  Level FlightAware Approximate
07:52PM 30.1092 -83.7497 129° Southeast 172 198 9,000  Level Jacksonville Center
07:53PM 29.9434 -83.6544 124° Southeast  Level FlightAware Approximate
07:53PM 30.0781 -83.7064 130° Southeast 172 198 9,000  Level Jacksonville Center
07:54PM 29.9160 -83.6068 124° Southeast  Level FlightAware Approximate
07:54PM 30.0492 -83.6675 131° Southeast 167 192 9,000  Level Jacksonville Center
07:55PM 29.8886 -83.5592 124° Southeast  Level FlightAware Approximate
07:55PM 30.0200 -83.6267 130° Southeast 162 186 9,000  Level Jacksonville Center
07:56PM 29.8611 -83.5117 124° Southeast  Level FlightAware Approximate
07:56PM 29.9892 -83.5833 129° Southeast 162 186 9,000  Level Jacksonville Center
07:57PM 29.9581 -83.5400 130° Southeast 162 186 9,000  Level Jacksonville Center
07:58PM 29.9289 -83.5014 131° Southeast 162 186 9,000  Level Jacksonville Center
07:59PM 29.8978 -83.4581 130° Southeast 162 186 9,000  Level Jacksonville Center
08:00PM 29.8667 -83.4147 130° Southeast 162 186 9,000  Level Jacksonville Center
08:01PM 29.8439 -83.3692 120° Southeast 162 186 9,000  Level Jacksonville Center
08:02PM 29.8189 -83.3211 121° Southeast 162 186 9,000  Level Jacksonville Center
08:03PM 29.7961 -83.2756 120° Southeast 172 198 9,000  Level Jacksonville Center
08:04PM 29.7733 -83.2253 118° Southeast 172 198 9,000  Level Jacksonville Center
08:05PM 29.7483 -83.1797 122° Southeast 173 199 9,000  Level Jacksonville Center
08:05PM 29.7483 -83.1772 90° East 172 198 9,000  Level Jacksonville Center
08:06PM 29.7339 -83.1533 125° Southeast 173 199 9,000  Level Jacksonville Center
08:06PM 29.7233 -83.1294 117° Southeast 167 192 9,000  Level Jacksonville Center
08:07PM 29.7089 -83.1053 125° Southeast 174 200 9,000  Level Jacksonville Center
08:07PM 29.7006 -83.0839 114° Southeast 167 192 9,000  Level Jacksonville Center
08:08PM 29.6839 -83.0600 129° Southeast 174 200 9,000  Level Jacksonville Center
08:08PM 29.6736 -83.0361 116° Southeast 167 192 9,000  Level Jacksonville Center
08:09PM 29.6589 -83.0122 125° Southeast 171 197 9,000  Level Jacksonville Center
08:09PM 29.6464 -82.9931 127° Southeast 167 192 9,000  Level Jacksonville Center
08:10PM 29.6297 -82.9739 135° Southeast 171 197 9,000  Level Jacksonville Center
08:10PM 29.6172 -82.9500 121° Southeast 173 199 9,000  Level Jacksonville Center
08:11PM 29.5942 -82.9283 141° Southeast 175 201 9,000  Level Jacksonville Center
08:11PM 29.5797 -82.9142 140° Southeast 173 199 9,000  Level Jacksonville Center
08:12PM 29.5525 -82.8925 145° Southeast 179 206 9,000  Level Jacksonville Center
08:12PM 29.5336 -82.8831 156° South 179 206 9,000  Level Jacksonville Center
08:13PM 29.5086 -82.8686 153° Southeast 174 200 9,000  Level Jacksonville Center
08:13PM 29.4856 -82.8544 152° Southeast 179 206 9,000  Level Jacksonville Center
08:14PM 29.4628 -82.8425 155° Southeast 176 203 9,000  Level Jacksonville Center
08:14PM 29.4419 -82.8306 153° Southeast 179 206 9,000  Level Jacksonville Center
08:15PM 29.4189 -82.8186 156° South 177 204 9,000  Level Jacksonville Center
08:16PM 29.3731 -82.7925 154° Southeast 178 205 9,000  Level Jacksonville Center
08:17PM 29.3333 -82.7686 152° Southeast 174 200 9,000  Level Jacksonville Center
08:18PM 29.2894 -82.7450 155° Southeast 174 200 9,000  Level Jacksonville Center
08:19PM 29.2414 -82.7164 153° Southeast 176 203 9,000  Level Jacksonville Center
08:20PM 29.1975 -82.6928 155° Southeast 177 204 9,000  Level Jacksonville Center
08:21PM 29.1536 -82.6692 155° Southeast 175 201 9,000  Level Jacksonville Center
08:22PM 29.1117 -82.6453 154° Southeast 173 199 9,000  Level Jacksonville Center
08:23PM 29.0681 -82.6194 153° Southeast 174 200 9,000  Level Jacksonville Center
08:24PM 29.0239 -82.5933 153° Southeast 176 203 9,000  Level Jacksonville Center
08:25PM 28.9758 -82.5675 155° Southeast 177 204 9,000  Level Jacksonville Center
08:26PM 28.9342 -82.5461 156° South 170 196 9,000  Level Jacksonville Center
08:27PM 28.8944 -82.5250 155° Southeast 170 196 9,000  Level Jacksonville Center
08:29PM 28.8167 -82.4833 155° Southeast 176 203 9,000  Level Tampa TRACON
08:30PM 28.7833 -82.4500 139° Southeast 175 201 9,000  Level Tampa TRACON
08:31PM 28.7333 -82.4333 164° South 180 207 9,000  Level Tampa TRACON
08:32PM 28.7000 -82.4000 139° Southeast 177 204 9,000  Level Tampa TRACON
08:33PM 28.6500 -82.3833 164° South 178 205 9,000  Level Tampa TRACON
08:34PM 28.6000 -82.3500 150° Southeast 182 209 9,000  Level Tampa TRACON
08:35PM 28.5500 -82.3333 164° South 181 208 9,000  Level Tampa TRACON
08:36PM 28.5167 -82.3000 139° Southeast 179 206 9,000  Level Tampa TRACON
08:37PM 28.4667 -82.2833 164° South 176 203 9,000  Level Tampa TRACON
08:39PM 28.3852 -82.2354 153° Southeast  Level FlightAware Approximate
08:39PM 28.3667 -82.2500 153° Southeast 183 211 9,000  Level Tampa TRACON
08:40PM 28.3167 -82.2333 164° South 181 208 9,000  Level Tampa TRACON
08:41PM 28.2667 -82.2167 164° South 180 207 9,000  Level Tampa TRACON
08:42PM 28.2167 -82.2167 180° South 181 208 9,000  Level Tampa TRACON
08:43PM 28.1833 -82.2000 156° South 179 206 9,000  Level Tampa TRACON
08:45PM 28.0833 -82.1833 172° South 177 204 9,000  Level Tampa TRACON
08:46PM 28.0333 -82.1667 164° South 179 206 9,000  Level Tampa TRACON
08:47PM 27.9833 -82.1667 180° South 180 207 9,000  Level Tampa TRACON
08:48PM 27.9333 -82.1500 164° South 179 206 9,000  Level Tampa TRACON
08:50PM 27.8181 -82.1247 169° South 166 191 9,000  Level Miami Center
08:51PM 27.7728 -82.1108 165° South 171 197 9,000  Level Miami Center
08:52PM 27.7231 -82.1017 171° South 177 204 9,000  Level Miami Center
08:53PM 27.6794 -82.0925 169° South 177 204 9,000  Level Miami Center
08:54PM 27.6294 -82.0881 175° South 183 211 9,000  Level Miami Center
08:55PM 27.5778 -82.0808 173° South 175 201 9,000  Level Miami Center
08:56PM 27.5258 -82.0739 173° South 180 207 9,000 -180 Level Miami Center
08:57PM 27.4758 -82.0669 173° South 180 207 8,700 -420 Descending Miami Center
08:58PM 27.4219 -82.0597 173° South 180 207 8,200 -540 Descending Miami Center
08:59PM 27.3678 -82.0528 174° South 185 213 7,700 -540 Descending Miami Center
09:00PM 27.3181 -82.0458 173° South 190 219 7,200 -360 Descending Miami Center
09:01PM 27.2661 -82.0411 175° South 190 219 7,000 -120 Descending Miami Center
09:02PM 27.2183 -82.0342 173° South 184 212 7,000  Level Miami Center
09:03PM 27.1725 -82.0275 173° South 178 205 7,000  Level Miami Center
09:04PM 27.1250 -82.0208 173° South 178 205 7,000  Level Miami Center
09:05PM 27.0772 -82.0139 173° South 178 205 7,000  Level Miami Center
09:06PM 27.0314 -82.0072 173° South 178 205 7,000  Level Miami Center
09:07PM 26.9836 -82.0028 175° South 178 205 7,000  Level Miami Center
09:08PM 26.9378 -81.9961 173° South 178 205 7,000  Level Miami Center
09:09PM 26.8925 -81.9847 167° South 178 205 7,000  Level Miami Center
09:10PM 26.8511 -81.9736 167° South 173 199 7,000  Level Miami Center
09:12PM 26.7814 -81.9514 164° South  Level FlightAware Approximate
09:19PM 26.4616 -81.8571 167° South  Level FlightAware Approximate
09:20PM 26.4157 -81.8446 165° South  Level FlightAware Approximate
09:21PM 26.3702 -81.8306 165° South  Level FlightAware Approximate
09:22PM 26.3247 -81.8165 165° South  Level FlightAware Approximate
09:23PM 26.2791 -81.8025 165° South  Level FlightAware Approximate
09:24PM 26.2336 -81.7885 165° South  Level FlightAware Approximate
09:25PM 26.1877 -81.7761 167° South  Level FlightAware Approximate
09:26PM 26.1500 -81.7667 167° South  Level FlightAware Approximate
09:27PM 26.1524 -81.7756 167° South  Level Estimated
09:28PM 26.1524 -81.7756 167° South  Level Estimated
09:29PM 26.1524 -81.7756 167° South  Level Estimated
09:30PM 26.1524 -81.7756 167° South  Level Estimated
09:31PM 26.1524 -81.7756 167° South  Level Estimated
09:32PM 26.1524 -81.7756 167° South  Level Estimated
09:33PM 26.1524 -81.7756 167° South  Level Estimated
09:34PM 26.1524 -81.7756 167° South  Level Estimated
09:35PM 26.1524 -81.7756 167° South  Level Estimated
09:36PM 26.1524 -81.7756 167° South  Level Estimated
09:37PM 26.1524 -81.7756 167° South  Level Estimated
09:38PM 26.1524 -81.7756 167° South  Level Estimated
09:39PM 26.1524 -81.7756 167° South  Level Estimated
09:40PM 26.1524 -81.7756 167° South  Level Estimated
09:41PM 26.1524 -81.7756 167° South  Level Estimated
09:42PM 26.1524 -81.7756 167° South  Level Estimated
09:43PM 26.1524 -81.7756 167° South  Level Estimated
09:44PM 26.1524 -81.7756 167° South  Level Estimated